createdAt,value
2018-06-10T00:00:59.488Z,6.87
2018-06-10T00:03:28.044Z,5.90
2018-06-10T00:05:56.379Z,7.23
2018-06-10T00:08:24.777Z,8.33
2018-06-10T00:10:53.186Z,10.50
2018-06-10T00:13:21.570Z,9.23
2018-06-10T00:15:50.596Z,9.73
2018-06-10T00:18:18.937Z,9.67
2018-06-10T00:20:47.320Z,10.33
2018-06-10T00:23:15.635Z,9.07
2018-06-10T00:25:44.038Z,9.40
2018-06-10T00:28:12.475Z,10.23
2018-06-10T00:30:40.813Z,9.50
2018-06-10T00:33:09.145Z,9.20
2018-06-10T00:35:37.458Z,9.50
2018-06-10T00:38:05.904Z,9.40
2018-06-10T00:40:34.291Z,7.97
2018-06-10T00:43:04.201Z,8.47
2018-06-10T00:45:32.627Z,8.27
2018-06-10T00:48:02.320Z,8.63
2018-06-10T00:50:31.528Z,9.37
2018-06-10T00:52:59.883Z,9.53
2018-06-10T00:55:28.225Z,9.97
2018-06-10T00:57:57.164Z,8.57
2018-06-10T01:00:25.499Z,9.20
2018-06-10T01:02:53.821Z,8.77
2018-06-10T01:05:22.159Z,9.30
2018-06-10T01:07:50.488Z,8.90
2018-06-10T01:10:18.852Z,9.43
2018-06-10T01:12:47.187Z,8.63
2018-06-10T01:15:15.525Z,9.83
2018-06-10T01:17:43.893Z,9.00
2018-06-10T01:20:12.185Z,7.93
2018-06-10T01:22:41.096Z,9.30
2018-06-10T01:25:09.463Z,8.30
2018-06-10T01:27:37.801Z,8.40
2018-06-10T01:30:06.140Z,9.80
2018-06-10T01:32:34.449Z,9.80
2018-06-10T01:35:02.836Z,10.00
2018-06-10T01:37:31.200Z,9.40
2018-06-10T01:39:59.903Z,10.17
2018-06-10T01:42:28.244Z,9.10
2018-06-10T01:44:56.624Z,9.80
2018-06-10T01:47:24.981Z,10.17
2018-06-10T01:49:53.298Z,11.73
2018-06-10T01:52:21.645Z,10.90
2018-06-10T01:54:49.971Z,12.23
2018-06-10T01:57:18.376Z,11.33
2018-06-10T01:59:46.720Z,12.57
2018-06-10T02:02:15.071Z,10.87
2018-06-10T02:04:44.472Z,12.03
2018-06-10T02:07:12.836Z,11.27
2018-06-10T02:09:41.930Z,11.17
2018-06-10T02:12:10.279Z,10.13
2018-06-10T02:14:38.691Z,10.20
2018-06-10T02:17:07.088Z,10.43
2018-06-10T02:19:36.035Z,11.27
2018-06-10T02:22:04.385Z,10.20
2018-06-10T02:24:33.405Z,12.50
2018-06-10T02:27:01.757Z,10.63
2018-06-10T02:29:30.124Z,12.30
2018-06-10T02:31:58.462Z,12.17
2018-06-10T02:34:26.813Z,10.90
2018-06-10T02:36:55.132Z,11.57
2018-06-10T02:39:24.146Z,10.80
2018-06-10T02:41:52.521Z,11.57
2018-06-10T02:44:20.879Z,11.67
2018-06-10T02:46:49.221Z,10.60
2018-06-10T02:49:17.585Z,12.20
2018-06-10T02:51:46.269Z,11.13
2018-06-10T02:54:14.611Z,12.30
2018-06-10T02:56:42.981Z,12.03
2018-06-10T02:59:11.409Z,12.63
2018-06-10T03:01:39.801Z,10.10
2018-06-10T03:04:08.185Z,9.37
2018-06-10T03:06:36.538Z,8.80
2018-06-10T03:09:07.296Z,9.20
2018-06-10T03:11:35.651Z,8.83
2018-06-10T03:14:03.982Z,10.10
2018-06-10T03:16:32.330Z,8.93
2018-06-10T03:19:00.406Z,9.63
2018-06-10T03:21:28.692Z,9.00
2018-06-10T03:23:57.015Z,9.90
2018-06-10T03:26:25.996Z,10.47
2018-06-10T03:28:54.309Z,10.27
2018-06-10T03:31:22.695Z,9.30
2018-06-10T03:33:51.047Z,9.00
2018-06-10T03:36:19.439Z,9.30
2018-06-10T03:38:48.178Z,9.80
2018-06-10T03:41:16.637Z,10.70
2018-06-10T03:43:45.034Z,10.90
2018-06-10T03:46:13.362Z,10.83
2018-06-10T03:48:41.722Z,10.63
2018-06-10T03:51:10.962Z,10.73
2018-06-10T03:53:39.288Z,10.47
2018-06-10T03:56:08.628Z,10.47
2018-06-10T03:58:36.972Z,11.97
2018-06-10T04:01:05.301Z,12.57
2018-06-10T04:03:33.646Z,13.27
2018-06-10T04:06:01.946Z,14.10
2018-06-10T04:08:30.263Z,13.43
2018-06-10T04:10:58.561Z,13.13
2018-06-10T04:13:26.906Z,13.97
2018-06-10T04:15:55.221Z,14.10
2018-06-10T04:18:23.550Z,14.00
2018-06-10T04:20:51.889Z,13.80
2018-06-10T04:23:20.195Z,13.73
2018-06-10T04:25:48.533Z,15.17
2018-06-10T04:28:16.842Z,14.90
2018-06-10T04:30:45.165Z,15.00
2018-06-10T04:33:13.478Z,14.03
2018-06-10T04:35:41.790Z,13.80
2018-06-10T04:38:10.141Z,16.10
2018-06-10T04:40:38.486Z,16.07
2018-06-10T04:43:06.910Z,17.07
2018-06-10T04:45:35.274Z,16.23
2018-06-10T04:48:03.600Z,15.50
2018-06-10T04:50:31.925Z,15.20
2018-06-10T04:53:00.307Z,16.43
2018-06-10T04:55:28.569Z,17.00
2018-06-10T04:57:56.955Z,15.67
2018-06-10T05:00:25.262Z,15.90
2018-06-10T05:02:53.324Z,15.60
2018-06-10T05:05:21.704Z,18.10
2018-06-10T05:07:50.033Z,16.93
2018-06-10T05:10:18.397Z,16.10
2018-06-10T05:12:46.738Z,17.00
2018-06-10T05:15:15.085Z,17.10
2018-06-10T05:17:43.418Z,17.13
2018-06-10T05:20:11.782Z,16.83
2018-06-10T05:22:40.152Z,17.13
2018-06-10T05:25:08.247Z,15.77
2018-06-10T05:27:36.608Z,17.23
2018-06-10T05:30:04.985Z,18.10
2018-06-10T05:32:33.610Z,18.20
2018-06-10T05:35:01.966Z,19.13
2018-06-10T05:37:30.303Z,18.27
2018-06-10T05:39:58.638Z,20.17
2018-06-10T05:42:26.942Z,19.43
2018-06-10T05:44:55.258Z,14.47
2018-06-10T05:47:23.373Z,12.60
2018-06-10T05:49:51.710Z,24.00
2018-06-10T05:52:20.034Z,13.00
2018-06-10T05:54:48.371Z,12.63
2018-06-10T05:57:16.411Z,12.67
2018-06-10T05:59:44.766Z,13.73
2018-06-10T06:02:13.327Z,14.37
2018-06-10T06:04:41.704Z,12.90
2018-06-10T06:07:10.085Z,11.97
2018-06-10T06:09:38.470Z,12.60
2018-06-10T06:12:06.805Z,11.90
2018-06-10T06:14:35.864Z,13.60
2018-06-10T06:17:04.522Z,13.90
2018-06-10T06:19:32.835Z,12.60
2018-06-10T06:22:01.138Z,14.93
2018-06-10T06:24:29.514Z,13.67
2018-06-10T06:26:59.209Z,13.57
2018-06-10T06:29:27.507Z,13.63
2018-06-10T06:31:55.903Z,16.70
2018-06-10T06:34:24.256Z,14.40
2018-06-10T06:36:52.604Z,14.97
2018-06-10T06:39:20.975Z,15.60
2018-06-10T06:41:49.289Z,15.20
2018-06-10T06:44:17.657Z,14.37
2018-06-10T06:46:45.998Z,14.90
2018-06-10T06:49:14.972Z,15.47
2018-06-10T06:51:43.459Z,14.60
2018-06-10T06:54:11.848Z,16.67
2018-06-10T06:56:40.231Z,15.07
2018-06-10T06:59:08.611Z,17.50
2018-06-10T07:01:36.988Z,16.17
2018-06-10T07:04:05.378Z,17.97
2018-06-10T07:06:33.703Z,17.23
2018-06-10T07:09:02.169Z,15.70
2018-06-10T07:11:30.464Z,15.87
2018-06-10T07:13:58.854Z,15.90
2018-06-10T07:16:27.240Z,15.33
2018-06-10T07:18:55.576Z,15.07
2018-06-10T07:21:24.147Z,15.60
2018-06-10T07:23:52.457Z,14.70
2018-06-10T07:26:20.783Z,16.90
2018-06-10T07:28:49.115Z,17.57
2018-06-10T07:31:17.466Z,17.77
2018-06-10T07:33:45.871Z,18.17
2018-06-10T07:36:14.232Z,17.70
2018-06-10T07:38:42.618Z,18.10
2018-06-10T07:41:10.950Z,16.93
2018-06-10T07:43:39.294Z,17.33
2018-06-10T07:46:07.667Z,16.40
2018-06-10T07:48:36.037Z,16.27
2018-06-10T07:51:04.390Z,15.17
2018-06-10T07:53:32.720Z,15.27
2018-06-10T07:56:01.040Z,14.63
2018-06-10T07:58:29.381Z,16.43
2018-06-10T08:00:57.822Z,15.60
2018-06-10T08:03:26.199Z,15.43
2018-06-10T08:05:54.524Z,16.13
2018-06-10T08:08:22.911Z,18.13
2018-06-10T08:10:51.306Z,16.63
2018-06-10T08:13:19.667Z,16.67
2018-06-10T08:15:48.110Z,14.40
2018-06-10T08:18:16.461Z,15.67
2018-06-10T08:20:44.771Z,17.77
2018-06-10T08:23:13.170Z,14.83
2018-06-10T08:25:42.198Z,16.30
2018-06-10T08:28:10.611Z,14.43
2018-06-10T08:30:38.994Z,14.30
2018-06-10T08:33:07.311Z,15.17
2018-06-10T08:35:35.680Z,16.63
2018-06-10T08:38:04.058Z,13.77
2018-06-10T08:40:32.411Z,15.10
2018-06-10T08:43:00.726Z,13.97
2018-06-10T08:45:29.110Z,13.17
2018-06-10T08:47:57.574Z,11.47
2018-06-10T08:50:26.055Z,13.00
2018-06-10T08:52:54.554Z,13.80
2018-06-10T08:55:22.924Z,12.37
2018-06-10T08:57:51.250Z,12.70
2018-06-10T09:00:19.678Z,13.80
2018-06-10T09:02:48.148Z,12.43
2018-06-10T09:05:16.550Z,12.00
2018-06-10T09:07:44.916Z,13.10
2018-06-10T09:10:13.287Z,12.83
2018-06-10T09:12:41.628Z,13.80
2018-06-10T09:15:09.989Z,13.03
2018-06-10T09:17:38.337Z,13.33
2018-06-10T09:20:06.780Z,13.60
2018-06-10T09:22:35.141Z,13.10
2018-06-10T09:25:03.543Z,12.53
2018-06-10T09:27:31.894Z,12.13
2018-06-10T09:30:00.283Z,13.40
2018-06-10T09:32:28.701Z,12.20
2018-06-10T09:34:57.053Z,13.93
2018-06-10T09:37:25.490Z,13.90
2018-06-10T09:39:53.944Z,12.90
2018-06-10T09:42:23.115Z,14.30
2018-06-10T09:44:51.529Z,14.23
2018-06-10T09:47:19.922Z,14.07
2018-06-10T09:49:48.366Z,14.00
2018-06-10T09:52:16.768Z,14.50
2018-06-10T09:54:45.154Z,12.30
2018-06-10T09:57:13.534Z,12.37
2018-06-10T09:59:41.879Z,11.23
2018-06-10T10:02:10.342Z,9.80
2018-06-10T10:04:38.702Z,9.63
2018-06-10T10:07:07.111Z,7.53
2018-06-10T10:09:35.584Z,8.97
2018-06-10T10:12:04.005Z,9.10
2018-06-10T10:14:32.449Z,9.47
2018-06-10T10:17:01.434Z,12.37
2018-06-10T10:19:29.852Z,12.67
2018-06-10T10:21:58.183Z,12.03
2018-06-10T10:24:26.259Z,11.73
2018-06-10T10:26:54.338Z,10.60
2018-06-10T10:29:22.715Z,10.80
2018-06-10T10:31:51.148Z,10.67
2018-06-10T10:34:19.523Z,10.70
2018-06-10T10:36:47.899Z,11.13
2018-06-10T10:39:16.244Z,10.53
2018-06-10T10:41:44.579Z,11.17
2018-06-10T10:44:12.955Z,10.47
2018-06-10T10:46:41.300Z,10.03
2018-06-10T10:49:16.390Z,9.30
2018-06-10T10:51:44.729Z,8.93
2018-06-10T10:54:13.304Z,8.63
2018-06-10T10:56:41.700Z,8.90
2018-06-10T10:59:10.057Z,8.10
2018-06-10T11:01:39.042Z,7.03
2018-06-10T11:04:07.354Z,5.70
2018-06-10T11:06:36.165Z,6.30
2018-06-10T11:09:05.781Z,9.43
2018-06-10T11:11:34.116Z,9.27
2018-06-10T11:14:02.538Z,8.83
2018-06-10T11:16:30.888Z,9.70
2018-06-10T11:18:59.220Z,9.90
2018-06-10T11:21:27.606Z,9.57
2018-06-10T11:23:55.960Z,9.70
2018-06-10T11:26:24.337Z,10.17
2018-06-10T11:28:52.723Z,9.53
2018-06-10T11:31:21.096Z,9.70
2018-06-10T11:33:49.479Z,9.50
2018-06-10T11:36:17.869Z,9.17
2018-06-10T11:38:46.213Z,9.27
2018-06-10T11:41:15.586Z,8.73
2018-06-10T11:43:43.994Z,8.97
2018-06-10T11:46:12.083Z,8.90
2018-06-10T11:48:40.773Z,8.50
2018-06-10T11:51:09.385Z,8.50
2018-06-10T11:53:37.769Z,8.93
2018-06-10T11:56:06.152Z,7.87
2018-06-10T11:58:34.503Z,7.73
2018-06-10T12:01:02.831Z,7.33
2018-06-10T12:03:31.208Z,8.37
2018-06-10T12:05:59.545Z,7.77
2018-06-10T12:08:27.911Z,7.93
2018-06-10T12:10:56.278Z,7.63
2018-06-10T12:13:24.594Z,8.13
2018-06-10T12:15:52.947Z,7.73
2018-06-10T12:18:21.298Z,8.60
2018-06-10T12:20:49.675Z,6.80
2018-06-10T12:23:18.076Z,7.53
2018-06-10T12:25:46.380Z,7.10
2018-06-10T12:28:14.775Z,7.00
2018-06-10T12:30:43.118Z,7.63
2018-06-10T12:33:11.511Z,6.87
2018-06-10T12:35:39.877Z,6.47
2018-06-10T12:38:08.231Z,7.03
2018-06-10T12:40:36.620Z,6.60
2018-06-10T12:43:04.966Z,6.90
2018-06-10T12:48:23.287Z,6.47
2018-06-10T12:50:51.632Z,4.93
2018-06-10T12:53:19.980Z,4.60
2018-06-10T12:55:48.390Z,5.30
2018-06-10T12:58:16.723Z,5.53
2018-06-10T13:00:45.878Z,5.77
2018-06-10T13:03:14.219Z,5.30
2018-06-10T13:05:42.608Z,5.23
2018-06-10T13:08:10.941Z,5.10
2018-06-10T13:10:39.251Z,5.30
2018-06-10T13:13:07.611Z,4.43
2018-06-10T13:15:35.988Z,4.57
2018-06-10T13:18:04.825Z,4.30
2018-06-10T13:20:33.210Z,3.90
2018-06-10T13:23:01.525Z,5.20
2018-06-10T13:25:29.831Z,5.10
2018-06-10T13:27:58.213Z,5.17
2018-06-10T13:30:26.292Z,5.00
2018-06-10T13:32:54.643Z,4.90
2018-06-10T13:35:23.027Z,4.40
2018-06-10T13:37:51.371Z,5.23
2018-06-10T13:40:19.719Z,5.30
2018-06-10T13:42:48.118Z,5.13
2018-06-10T13:45:16.453Z,5.03
2018-06-10T13:47:44.848Z,5.43
2018-06-10T13:50:13.250Z,4.90
2018-06-10T13:52:41.589Z,5.57
2018-06-10T13:55:09.915Z,4.90
2018-06-10T13:57:38.253Z,5.10
2018-06-10T14:00:06.617Z,6.30
2018-06-10T14:02:34.975Z,5.70
2018-06-10T14:05:03.377Z,5.30
2018-06-10T14:07:31.504Z,5.20
2018-06-10T14:09:59.858Z,4.77
2018-06-10T14:12:28.318Z,5.00
2018-06-10T14:14:56.608Z,5.73
2018-06-10T14:17:24.928Z,4.80
2018-06-10T14:19:53.662Z,5.33
2018-06-10T14:22:22.092Z,4.90
2018-06-10T14:24:50.409Z,4.63
2018-06-10T14:27:18.776Z,5.43
2018-06-10T14:29:48.236Z,4.70
2018-06-10T14:32:16.659Z,5.07
2018-06-10T14:34:45.051Z,5.40
2018-06-10T14:37:13.997Z,5.27
2018-06-10T14:39:42.371Z,5.50
2018-06-10T14:42:11.206Z,5.37
2018-06-10T14:44:39.550Z,5.17
2018-06-10T14:47:07.949Z,5.63
2018-06-10T14:49:36.396Z,5.60
2018-06-10T14:52:04.750Z,5.50
2018-06-10T14:54:33.149Z,6.00
2018-06-10T14:57:01.912Z,5.07
2018-06-10T14:59:30.347Z,4.20
2018-06-10T15:01:58.720Z,4.53
2018-06-10T15:04:27.129Z,4.43
2018-06-10T15:06:55.519Z,4.60
2018-06-10T15:09:23.963Z,4.80
2018-06-10T15:11:52.342Z,4.60
2018-06-10T15:14:20.707Z,5.07
2018-06-10T15:16:49.080Z,4.80
2018-06-10T15:19:17.431Z,4.43
2018-06-10T15:21:45.983Z,6.27
2018-06-10T15:24:14.360Z,6.50
2018-06-10T15:26:42.868Z,6.80
2018-06-10T15:29:11.251Z,7.63
2018-06-10T15:31:39.656Z,6.87
2018-06-10T15:34:08.048Z,7.13
2018-06-10T15:36:36.384Z,7.00
2018-06-10T15:39:07.181Z,7.53
2018-06-10T15:41:35.544Z,7.57
2018-06-10T15:44:03.893Z,6.80
2018-06-10T15:46:32.290Z,7.27
2018-06-10T15:49:00.633Z,7.07
2018-06-10T15:51:28.971Z,7.47
2018-06-10T15:53:57.299Z,7.87
2018-06-10T15:56:25.637Z,7.00
2018-06-10T15:58:54.007Z,7.60
2018-06-10T16:01:22.077Z,6.73
2018-06-10T16:03:50.424Z,6.87
2018-06-10T16:06:18.801Z,7.40
2018-06-10T16:08:47.146Z,7.30
2018-06-10T16:11:15.600Z,6.83
2018-06-10T16:13:43.986Z,8.10
2018-06-10T16:16:12.334Z,7.47
2018-06-10T16:18:40.678Z,7.70
2018-06-10T16:21:09.054Z,7.67
2018-06-10T16:23:37.438Z,8.17
2018-06-10T16:26:05.894Z,7.00
2018-06-10T16:28:34.447Z,7.90
2018-06-10T16:31:02.802Z,9.03
2018-06-10T16:33:31.213Z,9.37
2018-06-10T16:35:59.679Z,8.50
2018-06-10T16:38:28.063Z,7.63
2018-06-10T16:40:56.435Z,12.57
2018-06-10T16:43:24.780Z,17.13
2018-06-10T16:45:53.176Z,19.57
2018-06-10T16:48:21.648Z,19.80
2018-06-10T16:50:50.032Z,19.87
2018-06-10T16:53:18.376Z,22.03
2018-06-10T16:55:46.772Z,22.67
2018-06-10T16:58:15.172Z,32.83
2018-06-10T17:00:53.728Z,35.00
2018-06-10T17:03:22.277Z,33.80
2018-06-10T17:05:50.806Z,33.33
2018-06-10T17:08:19.196Z,34.03
2018-06-10T17:10:48.008Z,33.10
2018-06-10T17:13:16.400Z,32.97
2018-06-10T17:15:44.800Z,31.27
2018-06-10T17:18:13.880Z,29.40
2018-06-10T17:20:42.260Z,28.23
2018-06-10T17:23:10.700Z,24.23
2018-06-10T17:25:39.077Z,26.70
2018-06-10T17:28:07.452Z,22.90
2018-06-10T17:30:35.824Z,22.93
2018-06-10T17:33:04.240Z,21.87
2018-06-10T17:35:32.677Z,21.90
2018-06-10T17:38:01.149Z,21.23
2018-06-10T17:40:29.481Z,23.70
2018-06-10T17:42:58.466Z,24.60
2018-06-10T17:45:26.989Z,21.73
2018-06-10T17:47:55.378Z,21.40
2018-06-10T17:50:23.768Z,20.80
2018-06-10T17:52:51.812Z,20.43
2018-06-10T17:55:20.198Z,20.70
2018-06-10T17:57:48.569Z,20.30
2018-06-10T18:00:16.945Z,22.60
2018-06-10T18:02:45.315Z,21.50
2018-06-10T18:05:13.677Z,19.93
2018-06-10T18:07:42.046Z,16.90
2018-06-10T18:10:10.654Z,15.40
2018-06-10T18:12:39.097Z,16.07
2018-06-10T18:15:07.554Z,15.17
2018-06-10T18:17:36.509Z,14.63
2018-06-10T18:20:04.902Z,13.87
2018-06-10T18:22:33.267Z,14.17
2018-06-10T18:25:01.666Z,14.13
2018-06-10T18:27:30.080Z,14.03
2018-06-10T18:29:58.460Z,15.07
2018-06-10T18:32:26.887Z,16.00
2018-06-10T18:34:55.299Z,17.00
2018-06-10T18:37:23.705Z,18.37
2018-06-10T18:39:52.079Z,18.67
2018-06-10T18:42:20.487Z,18.00
2018-06-10T18:44:48.877Z,21.80
2018-06-10T18:47:17.253Z,21.00
2018-06-10T18:49:45.636Z,21.07
2018-06-10T18:52:14.016Z,23.70
2018-06-10T18:54:42.511Z,23.40
2018-06-10T18:57:10.910Z,22.50
2018-06-10T18:59:39.310Z,23.70
2018-06-10T19:02:07.699Z,24.30
2018-06-10T19:04:36.069Z,25.30
2018-06-10T19:07:06.800Z,22.23
2018-06-10T19:09:35.308Z,22.57
2018-06-10T19:12:03.692Z,24.90
2018-06-10T19:14:32.052Z,23.80
2018-06-10T19:17:00.419Z,23.17
2018-06-10T19:19:28.877Z,24.37
2018-06-10T19:21:57.287Z,25.00
2018-06-10T19:24:25.709Z,28.80
2018-06-10T19:26:54.096Z,27.63
2018-06-10T19:29:22.540Z,29.27
2018-06-10T19:31:50.890Z,30.67
2018-06-10T19:34:19.289Z,30.47
2018-06-10T19:36:47.657Z,32.27
2018-06-10T19:39:16.027Z,29.57
2018-06-10T19:41:44.467Z,28.90
2018-06-10T19:44:12.824Z,31.70
2018-06-10T19:46:41.259Z,31.53
2018-06-10T19:49:09.677Z,31.40
2018-06-10T19:51:38.049Z,33.70
2018-06-10T19:54:06.463Z,33.93
2018-06-10T19:56:34.909Z,33.97
2018-06-10T19:59:03.350Z,33.83
2018-06-10T20:01:31.704Z,35.07
2018-06-10T20:04:00.145Z,33.77
2018-06-10T20:06:28.551Z,33.30
2018-06-10T20:08:56.933Z,36.17
2018-06-10T20:11:25.316Z,37.73
2018-06-10T20:13:53.661Z,36.23
2018-06-10T20:16:22.105Z,37.60
2018-06-10T20:18:50.190Z,38.33
2018-06-10T20:21:18.577Z,37.03
2018-06-10T20:23:47.012Z,37.03
2018-06-10T20:26:15.400Z,39.50
2018-06-10T20:28:43.822Z,35.57
2018-06-10T20:31:12.419Z,35.40
2018-06-10T20:33:40.821Z,34.57
2018-06-10T20:36:09.188Z,36.43
2018-06-10T20:38:37.539Z,36.70
2018-06-10T20:41:06.077Z,36.27
2018-06-10T20:43:34.493Z,39.00
2018-06-10T20:46:02.820Z,38.93
2018-06-10T20:48:31.294Z,39.93
2018-06-10T20:50:59.569Z,39.83
2018-06-10T20:53:27.930Z,39.67
2018-06-10T20:55:56.265Z,39.93
2018-06-10T20:58:24.620Z,38.70
2018-06-10T21:00:53.003Z,42.60
2018-06-10T21:03:21.372Z,40.47
2018-06-10T21:05:49.727Z,40.50
2018-06-10T21:08:18.121Z,42.60
2018-06-10T21:10:46.416Z,42.03
2018-06-10T21:13:14.780Z,42.33
2018-06-10T21:15:43.132Z,43.70
2018-06-10T21:18:11.738Z,46.83
2018-06-10T21:20:40.086Z,45.70
2018-06-10T21:23:08.446Z,45.37
2018-06-10T21:25:36.874Z,45.17
2018-06-10T21:28:05.238Z,44.20
2018-06-10T21:30:33.679Z,44.50
2018-06-10T21:33:02.032Z,45.90
2018-06-10T21:35:30.375Z,45.83
2018-06-10T21:37:58.754Z,45.20
2018-06-10T21:40:27.083Z,46.87
2018-06-10T21:42:55.450Z,48.33
2018-06-10T21:45:23.791Z,50.20
2018-06-10T21:47:52.172Z,49.37
2018-06-10T21:50:20.277Z,49.33
2018-06-10T21:52:48.624Z,49.83
2018-06-10T21:55:17.046Z,52.30
2018-06-10T21:57:45.403Z,48.93
2018-06-10T22:00:25.013Z,49.27
2018-06-10T22:02:53.510Z,48.47
2018-06-10T22:05:22.149Z,48.27
2018-06-10T22:07:50.503Z,50.60
2018-06-10T22:10:19.779Z,50.40
2018-06-10T22:12:48.107Z,51.80
2018-06-10T22:15:16.436Z,49.37
2018-06-10T22:17:44.844Z,50.80
2018-06-10T22:20:13.224Z,48.87
2018-06-10T22:22:41.572Z,50.37
2018-06-10T22:25:09.904Z,49.47
2018-06-10T22:27:38.280Z,49.80
2018-06-10T22:30:06.632Z,51.47
2018-06-10T22:32:34.999Z,48.93
2018-06-10T22:35:03.304Z,50.43
2018-06-10T22:37:31.666Z,49.27
2018-06-10T22:40:00.001Z,47.60
2018-06-10T22:42:28.364Z,47.60
2018-06-10T22:44:56.707Z,48.53
2018-06-10T22:47:25.057Z,47.40
2018-06-10T22:49:53.418Z,47.80
2018-06-10T22:52:21.751Z,48.80
2018-06-10T22:54:50.093Z,47.20
2018-06-10T22:57:18.520Z,47.60
2018-06-10T22:59:46.868Z,46.03
2018-06-10T23:02:15.225Z,48.70
2018-06-10T23:04:43.560Z,49.07
2018-06-10T23:07:11.934Z,46.10
2018-06-10T23:09:40.243Z,50.47
2018-06-10T23:12:08.605Z,52.17
2018-06-10T23:14:36.973Z,47.80
2018-06-10T23:17:05.314Z,52.10
2018-06-10T23:19:33.662Z,49.67
2018-06-10T23:22:02.029Z,49.77
2018-06-10T23:24:30.383Z,48.07
2018-06-10T23:26:58.747Z,49.20
2018-06-10T23:29:27.143Z,48.90
2018-06-10T23:31:55.459Z,50.20
2018-06-10T23:34:24.517Z,53.77
2018-06-10T23:36:52.916Z,51.90
2018-06-10T23:39:21.254Z,49.70
2018-06-10T23:41:49.612Z,48.13
2018-06-10T23:44:17.953Z,51.47
2018-06-10T23:46:46.285Z,50.43
2018-06-10T23:49:15.263Z,48.83
2018-06-10T23:51:44.715Z,47.97
2018-06-10T23:54:13.181Z,49.47
2018-06-10T23:56:41.539Z,50.27
2018-06-10T23:59:09.889Z,49.57
